Time;durP1;ratioP1;P1;durP2;ratioP2;P2;SDS_P1;SDS_P2;PMS_P1;PMS_P2;Temp;Humidity;BMP_temperature;BMP_pressure;BME280_temperature;BME280_humidity;BME280_pressure;Samples;Min_cycle;Max_cycle;Signal;HPM_P1;HPM_P2
2022/01/04 00:02:12;;;;;;;3.77;1.57;;;9.90;99.90;;;;;;4973506;28;20255;-68
2022/01/04 00:04:38;;;;;;;3.37;1.40;;;9.90;99.90;;;;;;4973458;28;20183;-68
2022/01/04 00:07:04;;;;;;;1.33;1.20;;;9.90;99.90;;;;;;4973129;28;20172;-68
2022/01/04 00:09:29;;;;;;;1.20;1.10;;;9.90;99.90;;;;;;4973570;28;20230;-68
2022/01/04 00:14:21;;;;;;;1.93;1.20;;;9.90;99.90;;;;;;4973445;28;20176;-68
2022/01/04 00:16:47;;;;;;;1.87;1.60;;;9.90;99.90;;;;;;4973151;28;20175;-68
2022/01/04 00:19:13;;;;;;;1.90;1.40;;;9.80;99.90;;;;;;4973348;28;20438;-68
2022/01/04 00:21:39;;;;;;;1.33;1.23;;;9.80;99.90;;;;;;4972992;28;20459;-69
2022/01/04 00:24:06;;;;;;;5.30;2.63;;;9.80;99.90;;;;;;4973235;28;20176;-68
2022/01/04 00:26:31;;;;;;;3.37;1.30;;;9.80;99.90;;;;;;4973004;28;20419;-68
2022/01/04 00:28:57;;;;;;;2.40;1.90;;;9.80;99.90;;;;;;4973267;28;20426;-68
2022/01/04 00:31:23;;;;;;;2.03;1.53;;;9.80;99.90;;;;;;4972952;28;20307;-68
2022/01/04 00:33:50;;;;;;;5.17;2.23;;;9.80;99.90;;;;;;4973219;28;20172;-68
2022/01/04 00:36:16;;;;;;;2.70;1.57;;;9.70;99.90;;;;;;4972716;28;20514;-68
2022/01/04 00:38:42;;;;;;;3.17;1.70;;;9.70;99.90;;;;;;4973166;28;20558;-68
2022/01/04 00:41:07;;;;;;;2.60;1.60;;;9.80;99.90;;;;;;4973088;28;20204;-68
2022/01/04 00:43:33;;;;;;;1.27;1.17;;;9.80;99.90;;;;;;4973151;28;20259;-68
2022/01/04 00:46:00;;;;;;;3.53;1.37;;;9.80;99.90;;;;;;4972849;28;20199;-68
2022/01/04 00:50:52;;;;;;;3.83;1.50;;;9.70;99.90;;;;;;4973106;28;20523;-68
2022/01/04 00:53:18;;;;;;;1.30;1.20;;;9.80;99.90;;;;;;4973023;28;20434;-68
2022/01/04 00:55:43;;;;;;;1.60;1.50;;;9.80;99.90;;;;;;4972762;28;20922;-68
2022/01/04 00:58:09;;;;;;;1.33;1.23;;;9.70;99.90;;;;;;4972975;28;20173;-68
2022/01/04 01:00:35;;;;;;;2.00;1.40;;;9.70;99.90;;;;;;4972909;28;20176;-68
2022/01/04 01:03:02;;;;;;;2.73;1.40;;;9.80;99.90;;;;;;4972884;28;20176;-68
2022/01/04 01:05:28;;;;;;;1.80;1.33;;;9.80;99.90;;;;;;4972652;28;21133;-68
2022/01/04 01:07:54;;;;;;;1.87;1.67;;;9.70;99.90;;;;;;4972967;28;20486;-68
2022/01/04 01:12:48;;;;;;;1.20;1.03;;;9.70;99.90;;;;;;4972864;28;20925;-68
2022/01/04 01:15:14;;;;;;;1.70;1.47;;;9.70;99.90;;;;;;4972554;28;20482;-68
2022/01/04 01:17:40;;;;;;;2.30;1.70;;;9.70;99.90;;;;;;4976508;28;20451;-68
2022/01/04 01:20:08;;;;;;;2.57;1.50;;;9.70;99.90;;;;;;4976358;28;20200;-68
2022/01/04 01:22:34;;;;;;;1.70;1.50;;;9.70;99.90;;;;;;4976272;28;20701;-68
2022/01/04 01:25:00;;;;;;;1.60;1.50;;;9.70;99.90;;;;;;4976224;28;20434;-68
2022/01/04 01:27:25;;;;;;;1.50;1.30;;;9.70;99.90;;;;;;4976242;28;20439;-68
2022/01/04 01:29:51;;;;;;;1.37;1.27;;;9.60;99.90;;;;;;4976292;28;20230;-68
2022/01/04 01:32:17;;;;;;;1.20;1.10;;;9.60;99.90;;;;;;4976134;28;20203;-68
2022/01/04 01:34:43;;;;;;;1.50;1.40;;;9.60;99.90;;;;;;4976217;28;20619;-68
2022/01/04 01:37:08;;;;;;;1.50;1.40;;;9.60;99.90;;;;;;4975958;28;20430;-68
2022/01/04 01:39:34;;;;;;;1.70;1.53;;;9.60;99.90;;;;;;4976265;28;20190;-68
2022/01/04 01:41:59;;;;;;;4.10;2.20;;;9.60;99.90;;;;;;4976018;28;20197;-68
2022/01/04 01:44:25;;;;;;;4.00;1.60;;;9.50;99.90;;;;;;4976033;28;20231;-68
2022/01/04 01:46:51;;;;;;;2.23;2.03;;;9.50;99.90;;;;;;4975761;28;20168;-68
2022/01/04 01:49:17;;;;;;;3.00;2.03;;;9.50;99.90;;;;;;4975873;28;20187;-68
2022/01/04 01:51:42;;;;;;;1.87;1.77;;;9.40;99.90;;;;;;4975776;28;20212;-68
2022/01/04 01:54:08;;;;;;;1.50;1.40;;;9.40;99.90;;;;;;4975879;28;20431;-68
2022/01/04 01:56:34;;;;;;;2.23;2.00;;;9.40;99.90;;;;;;4975524;28;20183;-68
2022/01/04 01:58:59;;;;;;;2.27;2.00;;;9.30;99.90;;;;;;4975837;28;20210;-68
2022/01/04 02:01:25;;;;;;;2.00;1.80;;;9.30;99.90;;;;;;4975688;28;20208;-68
2022/01/04 02:03:51;;;;;;;2.20;2.00;;;9.30;99.90;;;;;;4975904;28;20251;-68
2022/01/04 02:06:19;;;;;;;1.93;1.77;;;9.30;99.90;;;;;;4975363;28;20459;-68
2022/01/04 02:08:44;;;;;;;1.80;1.70;;;9.20;99.90;;;;;;4975738;28;20211;-68
2022/01/04 02:11:11;;;;;;;3.33;2.03;;;9.20;99.90;;;;;;4975484;28;21008;-68
2022/01/04 02:13:37;;;;;;;4.27;2.10;;;9.20;99.90;;;;;;4975533;28;20272;-68
2022/01/04 02:16:03;;;;;;;3.00;1.63;;;9.20;99.90;;;;;;4975216;28;20527;-68
2022/01/04 02:18:29;;;;;;;2.13;1.70;;;9.20;99.90;;;;;;4975355;28;20200;-68
2022/01/04 02:20:54;;;;;;;1.70;1.60;;;9.20;99.90;;;;;;4975103;28;20535;-68
2022/01/04 02:23:20;;;;;;;3.77;2.67;;;9.20;99.90;;;;;;4975342;28;20176;-68
2022/01/04 02:25:46;;;;;;;3.60;2.50;;;9.30;99.90;;;;;;4974987;28;20307;-68
2022/01/04 02:28:12;;;;;;;3.00;2.30;;;9.40;99.90;;;;;;4973948;28;20364;-68
2022/01/04 02:30:38;;;;;;;2.20;2.00;;;9.50;99.90;;;;;;4974964;28;20550;-68
2022/01/04 02:33:03;;;;;;;2.40;2.20;;;9.50;99.90;;;;;;4975292;28;20184;-68
2022/01/04 02:35:30;;;;;;;2.50;2.30;;;9.50;99.90;;;;;;4974999;28;20176;-68
2022/01/04 02:37:58;;;;;;;4.73;2.40;;;9.60;99.90;;;;;;4975136;28;20173;-68
2022/01/04 02:40:24;;;;;;;4.47;1.90;;;9.60;99.90;;;;;;4974942;28;20918;-68
2022/01/04 02:42:50;;;;;;;2.70;2.50;;;9.60;99.90;;;;;;4974915;28;20936;-68
2022/01/04 02:45:16;;;;;;;2.60;2.27;;;9.70;99.90;;;;;;4973336;28;20428;-67
2022/01/04 02:47:42;;;;;;;4.13;2.20;;;9.80;99.90;;;;;;4974846;28;20502;-68
2022/01/04 02:50:08;;;;;;;2.93;2.63;;;9.80;99.90;;;;;;4974749;28;20231;-68
2022/01/04 02:52:34;;;;;;;2.27;2.07;;;9.80;99.90;;;;;;4974683;28;20196;-68
2022/01/04 02:55:02;;;;;;;2.30;2.10;;;9.90;99.90;;;;;;4974533;28;20419;-68
2022/01/04 02:57:27;;;;;;;2.47;2.10;;;9.90;99.90;;;;;;4974628;28;20168;-67
2022/01/04 02:59:53;;;;;;;2.70;2.17;;;10.00;99.90;;;;;;4974597;28;20447;-68
2022/01/04 03:02:18;;;;;;;1.70;1.60;;;10.10;99.90;;;;;;4974507;28;20207;-68
2022/01/04 03:04:44;;;;;;;9.43;1.90;;;10.10;99.90;;;;;;4974558;28;20192;-68
2022/01/04 03:07:10;;;;;;;1.93;1.73;;;10.10;99.90;;;;;;4974214;28;20187;-68
2022/01/04 03:09:35;;;;;;;2.93;1.90;;;10.10;99.90;;;;;;4974374;28;20267;-68
2022/01/04 03:12:01;;;;;;;1.93;1.83;;;10.10;99.90;;;;;;4974321;28;20234;-68
2022/01/04 03:14:26;;;;;;;1.93;1.80;;;10.10;99.90;;;;;;4974287;28;20643;-68
2022/01/04 03:16:52;;;;;;;3.03;1.90;;;10.00;99.90;;;;;;4974061;28;20177;-68
2022/01/04 03:19:18;;;;;;;1.93;1.70;;;10.00;99.90;;;;;;4974300;28;20180;-68
2022/01/04 03:21:44;;;;;;;2.00;1.83;;;9.90;99.90;;;;;;4974038;28;20697;-67
2022/01/04 03:24:13;;;;;;;2.50;2.30;;;9.90;99.90;;;;;;4974180;28;20431;-68
2022/01/04 03:26:39;;;;;;;5.23;1.83;;;10.00;99.90;;;;;;4973877;28;20482;-68
2022/01/04 03:29:06;;;;;;;2.43;2.20;;;9.90;99.90;;;;;;4974010;28;20913;-68
2022/01/04 03:31:32;;;;;;;1.90;1.77;;;9.80;99.90;;;;;;4973851;28;20467;-68
2022/01/04 03:33:58;;;;;;;1.93;1.83;;;9.80;99.90;;;;;;4973981;28;20998;-68
2022/01/04 03:36:24;;;;;;;3.77;2.10;;;9.90;99.90;;;;;;4972409;28;20515;-68
2022/01/04 03:38:54;;;;;;;1.80;1.70;;;9.80;99.90;;;;;;4973559;28;20435;-68
2022/01/04 03:41:21;;;;;;;1.67;1.57;;;9.80;99.90;;;;;;4973777;28;20452;-68
2022/01/04 03:43:48;;;;;;;2.27;1.70;;;9.80;99.90;;;;;;4972634;28;20436;-67
2022/01/04 03:46:13;;;;;;;1.70;1.60;;;9.80;99.90;;;;;;4973514;28;20507;-67
2022/01/04 03:48:39;;;;;;;3.97;2.10;;;9.80;99.90;;;;;;4973845;28;21012;-67
2022/01/04 03:51:06;;;;;;;1.70;1.40;;;9.80;99.90;;;;;;4973604;28;20577;-67
2022/01/04 03:53:31;;;;;;;2.07;1.87;;;9.80;99.90;;;;;;4973794;28;20176;-68
2022/01/04 03:55:57;;;;;;;1.60;1.50;;;9.90;99.90;;;;;;4973369;28;20435;-67
2022/01/04 03:58:23;;;;;;;1.67;1.57;;;9.90;99.90;;;;;;4973602;28;20552;-68
2022/01/04 04:00:49;;;;;;;1.53;1.43;;;9.90;99.90;;;;;;4972442;28;20459;-68
2022/01/04 04:03:16;;;;;;;2.00;1.80;;;9.80;99.90;;;;;;4973667;28;20450;-68
2022/01/04 04:05:42;;;;;;;2.53;1.73;;;9.80;99.90;;;;;;4973161;28;20511;-67
2022/01/04 04:08:08;;;;;;;1.60;1.50;;;9.80;99.90;;;;;;4973499;28;20569;-67
2022/01/04 04:10:33;;;;;;;1.43;1.33;;;9.80;99.90;;;;;;4973242;28;20207;-67
2022/01/04 04:12:59;;;;;;;1.73;1.63;;;9.90;99.90;;;;;;4973428;28;20431;-68
2022/01/04 04:15:25;;;;;;;2.20;1.37;;;10.00;99.90;;;;;;4973074;28;20550;-67
2022/01/04 04:17:50;;;;;;;1.30;1.20;;;10.00;99.90;;;;;;4973319;28;20319;-67
2022/01/04 04:20:16;;;;;;;2.23;1.90;;;10.00;99.90;;;;;;4973218;28;20192;-67
2022/01/04 04:22:42;;;;;;;1.30;1.20;;;9.90;99.90;;;;;;4973641;28;20208;-67
2022/01/04 04:25:08;;;;;;;1.60;1.50;;;9.90;99.90;;;;;;4972946;28;20183;-67
2022/01/04 04:27:33;;;;;;;2.70;1.57;;;9.90;99.90;;;;;;4973202;28;20665;-67
2022/01/04 04:29:59;;;;;;;4.07;2.63;;;10.00;99.90;;;;;;4973093;28;20463;-67
2022/01/04 04:32:25;;;;;;;1.67;1.23;;;10.00;99.90;;;;;;4973170;28;20204;-67
2022/01/04 04:34:50;;;;;;;2.00;1.50;;;10.00;99.90;;;;;;4973194;28;20183;-67
2022/01/04 04:37:16;;;;;;;1.83;1.30;;;9.90;99.90;;;;;;4972918;28;20247;-67
2022/01/04 04:39:41;;;;;;;3.53;1.60;;;10.00;99.90;;;;;;4973054;28;20179;-67
2022/01/04 04:42:07;;;;;;;3.50;1.60;;;10.00;99.90;;;;;;4973062;28;20251;-67
2022/01/04 04:44:33;;;;;;;1.60;1.50;;;10.00;99.90;;;;;;4973050;28;20172;-67
2022/01/04 04:46:58;;;;;;;1.53;1.43;;;9.90;99.90;;;;;;4972847;28;20419;-68
2022/01/04 04:49:24;;;;;;;3.50;1.30;;;10.00;99.90;;;;;;4973063;28;20172;-67
2022/01/04 04:51:50;;;;;;;1.43;1.33;;;9.90;99.90;;;;;;4975695;28;20230;-67
2022/01/04 04:54:15;;;;;;;2.33;1.47;;;9.90;99.90;;;;;;4977079;28;20172;-67
2022/01/04 04:56:41;;;;;;;1.67;1.57;;;10.00;99.90;;;;;;4976643;28;20316;-67
2022/01/04 04:59:08;;;;;;;1.40;1.30;;;9.90;99.90;;;;;;4976960;28;20172;-67
2022/01/04 05:01:34;;;;;;;2.17;1.50;;;9.90;99.90;;;;;;4976747;28;20330;-67
2022/01/04 05:03:59;;;;;;;1.70;1.60;;;9.90;99.90;;;;;;4976808;28;20905;-67
2022/01/04 05:06:25;;;;;;;1.67;1.57;;;9.90;99.90;;;;;;4976466;28;20430;-67
2022/01/04 05:08:51;;;;;;;3.53;1.50;;;9.90;99.90;;;;;;4976703;28;20173;-67
2022/01/04 05:11:17;;;;;;;1.97;1.67;;;9.80;99.90;;;;;;4976442;28;20882;-67
2022/01/04 05:13:43;;;;;;;1.80;1.70;;;9.80;99.90;;;;;;4976597;28;20419;-67
2022/01/04 05:16:08;;;;;;;2.07;1.87;;;9.90;99.90;;;;;;4976527;28;20262;-67
2022/01/04 05:18:34;;;;;;;1.67;1.57;;;9.80;99.90;;;;;;4976580;28;20653;-67
2022/01/04 05:20:59;;;;;;;2.40;1.37;;;9.90;99.90;;;;;;4976256;28;20286;-67
2022/01/04 05:23:25;;;;;;;1.63;1.53;;;9.90;99.90;;;;;;4976440;28;20199;-67
2022/01/04 05:25:50;;;;;;;2.57;1.70;;;9.80;99.90;;;;;;4976034;28;20564;-67
2022/01/04 05:28:16;;;;;;;2.40;1.80;;;9.80;99.90;;;;;;4981170;28;20187;-67
2022/01/04 05:30:41;;;;;;;2.50;1.77;;;9.80;99.90;;;;;;4995579;28;20286;-67
2022/01/04 05:33:07;;;;;;;1.70;1.60;;;9.80;99.90;;;;;;4995889;28;20178;-67
2022/01/04 05:35:32;;;;;;;3.07;2.10;;;9.80;99.90;;;;;;4995475;28;20198;-68
2022/01/04 05:37:58;;;;;;;1.90;1.80;;;9.80;99.90;;;;;;4995590;28;20217;-67
2022/01/04 05:40:23;;;;;;;1.87;1.77;;;9.80;99.90;;;;;;4995595;28;20645;-67
2022/01/04 05:42:49;;;;;;;1.60;1.50;;;9.80;99.90;;;;;;4995589;28;20176;-66
2022/01/04 05:45:15;;;;;;;2.27;2.07;;;9.80;99.90;;;;;;4995337;28;20548;-67
2022/01/04 05:47:40;;;;;;;2.33;2.03;;;9.80;99.90;;;;;;4994257;28;20180;-66
2022/01/04 05:50:06;;;;;;;1.80;1.70;;;9.70;99.90;;;;;;4995407;28;20575;-67
2022/01/04 05:52:33;;;;;;;1.60;1.50;;;9.70;99.90;;;;;;4995262;28;20192;-67
2022/01/04 05:54:58;;;;;;;1.70;1.60;;;9.80;99.90;;;;;;4995082;28;20517;-67
2022/01/04 05:57:24;;;;;;;2.30;1.77;;;9.70;99.90;;;;;;4995190;28;20505;-66
2022/01/04 05:59:49;;;;;;;3.20;1.80;;;9.70;99.90;;;;;;4995254;28;20646;-66
2022/01/04 06:02:15;;;;;;;1.90;1.70;;;9.70;99.90;;;;;;4994851;28;20571;-66
2022/01/04 06:04:41;;;;;;;1.90;1.80;;;9.70;99.90;;;;;;4995266;28;20242;-67
2022/01/04 06:07:06;;;;;;;1.67;1.57;;;9.80;99.90;;;;;;4994819;28;20172;-66
2022/01/04 06:09:41;;;;;;;1.83;1.73;;;9.70;99.90;;;;;;4994988;28;20207;-66
2022/01/04 06:14:50;;;;;;;3.87;1.63;;;9.80;99.90;;;;;;4994921;28;20238;-67
2022/01/04 06:14:53;;;;;;;1.57;1.30;;;9.80;99.90;;;;;;4994834;28;20472;-67
2022/01/04 06:17:22;;;;;;;2.43;1.67;;;9.80;99.90;;;;;;4994733;28;20411;-67
2022/01/04 06:19:47;;;;;;;5.33;1.90;;;9.80;99.90;;;;;;4994811;28;20419;-67
2022/01/04 06:22:13;;;;;;;2.03;1.80;;;9.80;99.90;;;;;;4994632;28;20805;-66
2022/01/04 06:24:38;;;;;;;1.50;1.40;;;9.80;99.90;;;;;;4994745;28;20183;-67
2022/01/04 06:27:09;;;;;;;2.00;1.80;;;9.80;99.90;;;;;;4994472;28;20540;-67
2022/01/04 06:29:35;;;;;;;1.83;1.67;;;9.80;99.90;;;;;;4994764;28;20183;-66
2022/01/04 06:32:01;;;;;;;3.20;2.20;;;9.80;99.90;;;;;;4994682;28;20441;-66
2022/01/04 06:34:26;;;;;;;2.10;1.80;;;9.80;99.90;;;;;;4994610;28;20426;-67
2022/01/04 06:36:52;;;;;;;1.80;1.70;;;9.80;99.90;;;;;;4994259;28;20184;-69
2022/01/04 06:39:17;;;;;;;2.00;1.73;;;9.80;99.90;;;;;;4994537;28;20171;-67
2022/01/04 06:41:43;;;;;;;1.70;1.57;;;9.80;99.90;;;;;;4994381;28;20203;-67
2022/01/04 06:44:09;;;;;;;2.20;1.70;;;9.80;99.90;;;;;;4994351;28;20186;-67
2022/01/04 06:46:34;;;;;;;1.70;1.57;;;9.80;99.90;;;;;;4994103;28;20258;-67
2022/01/04 06:49:01;;;;;;;1.60;1.50;;;9.80;99.90;;;;;;4994330;28;20274;-67
2022/01/04 06:51:26;;;;;;;2.07;1.67;;;9.80;99.90;;;;;;4994134;28;20254;-67
2022/01/04 06:53:52;;;;;;;1.67;1.57;;;9.80;99.90;;;;;;4994182;28;20411;-67
2022/01/04 06:56:17;;;;;;;2.10;1.70;;;9.80;99.90;;;;;;4993824;28;20175;-67
2022/01/04 06:58:43;;;;;;;2.47;1.77;;;9.70;99.90;;;;;;4994124;28;20183;-67
2022/01/04 07:01:09;;;;;;;2.30;1.53;;;9.80;99.90;;;;;;4994071;28;20183;-68
2022/01/04 07:03:34;;;;;;;2.80;1.87;;;9.80;99.90;;;;;;4994012;28;20437;-68
2022/01/04 07:06:00;;;;;;;1.80;1.70;;;9.80;99.90;;;;;;4993739;28;20164;-68
2022/01/04 07:08:25;;;;;;;2.10;1.90;;;9.70;99.90;;;;;;4993940;28;20179;-67
2022/01/04 07:10:51;;;;;;;1.63;1.53;;;9.70;99.90;;;;;;4993779;28;20556;-68
2022/01/04 07:13:16;;;;;;;1.90;1.80;;;9.80;99.90;;;;;;4993131;28;20175;-67
2022/01/04 07:15:42;;;;;;;1.97;1.77;;;9.80;99.90;;;;;;4993553;28;20523;-67
2022/01/04 07:18:08;;;;;;;2.87;2.30;;;9.80;99.90;;;;;;4993741;28;20172;-68
2022/01/04 07:20:33;;;;;;;4.10;2.00;;;9.80;99.90;;;;;;4993524;28;20186;-67
2022/01/04 07:22:59;;;;;;;1.87;1.73;;;9.80;99.90;;;;;;4992455;28;20184;-67
2022/01/04 07:25:24;;;;;;;3.00;1.90;;;9.80;99.90;;;;;;4993331;28;20190;-67
2022/01/04 07:27:50;;;;;;;2.20;1.90;;;9.80;99.90;;;;;;4973829;28;20322;-68
2022/01/04 07:30:15;;;;;;;1.70;1.60;;;9.90;99.90;;;;;;4973531;28;20204;-67
2022/01/04 07:32:41;;;;;;;2.87;2.30;;;9.90;99.90;;;;;;4973670;28;20196;-67
2022/01/04 07:35:07;;;;;;;1.73;1.53;;;10.00;99.90;;;;;;4973799;28;20176;-68
2022/01/04 07:37:32;;;;;;;1.63;1.40;;;10.00;99.90;;;;;;4972739;28;20207;-67
2022/01/04 07:39:58;;;;;;;2.80;2.03;;;10.10;99.90;;;;;;4970157;28;20463;-68
2022/01/04 07:42:23;;;;;;;1.70;1.60;;;10.10;99.90;;;;;;4941273;28;21446;-67
2022/01/04 07:44:49;;;;;;;2.10;1.37;;;10.20;99.90;;;;;;4960974;28;20180;-68
2022/01/04 07:47:14;;;;;;;1.70;1.60;;;10.40;99.90;;;;;;4973463;28;20176;-67
2022/01/04 07:49:40;;;;;;;1.20;1.10;;;10.40;99.90;;;;;;4973470;28;20176;-67
2022/01/04 07:52:06;;;;;;;2.10;1.50;;;10.50;99.90;;;;;;4968966;28;20295;-67
2022/01/04 07:54:31;;;;;;;3.50;1.57;;;10.50;99.90;;;;;;4973707;28;20179;-67
2022/01/04 07:56:57;;;;;;;2.70;1.67;;;10.50;99.90;;;;;;4973343;28;20235;-67
2022/01/04 07:59:23;;;;;;;2.13;1.30;;;10.70;99.90;;;;;;4973677;28;20303;-68
2022/01/04 08:01:48;;;;;;;1.80;1.20;;;10.70;99.90;;;;;;4970148;28;20224;-67
2022/01/04 08:04:14;;;;;;;1.60;1.50;;;10.70;99.90;;;;;;4973571;28;20459;-67
2022/01/04 08:06:39;;;;;;;15.70;1.97;;;10.70;99.90;;;;;;4973164;28;20187;-67
2022/01/04 08:09:05;;;;;;;1.93;1.43;;;10.80;99.90;;;;;;4973529;28;20232;-67
2022/01/04 08:11:31;;;;;;;6.00;1.20;;;10.90;99.90;;;;;;4969930;28;20223;-67
2022/01/04 08:13:56;;;;;;;1.70;1.60;;;10.90;99.90;;;;;;4973429;28;20169;-67
2022/01/04 08:16:22;;;;;;;2.23;1.20;;;11.00;99.90;;;;;;4973067;28;20211;-67
2022/01/04 08:18:48;;;;;;;2.20;1.00;;;11.00;99.90;;;;;;4973427;28;20184;-67
2022/01/04 08:21:14;;;;;;;1.30;1.20;;;10.90;99.90;;;;;;4969825;28;20224;-68
2022/01/04 08:23:39;;;;;;;1.43;1.20;;;11.00;99.90;;;;;;4973278;28;20490;-68
2022/01/04 08:26:05;;;;;;;3.70;1.60;;;10.90;99.90;;;;;;4972945;28;20180;-67
2022/01/04 08:28:30;;;;;;;1.57;1.47;;;11.00;99.90;;;;;;4973193;28;20630;-68
2022/01/04 08:30:57;;;;;;;1.40;1.30;;;11.00;99.90;;;;;;4969641;28;20238;-68
2022/01/04 08:33:23;;;;;;;1.70;1.20;;;11.10;99.90;;;;;;4973176;28;20251;-67
2022/01/04 08:35:48;;;;;;;1.50;1.40;;;11.10;99.90;;;;;;4972990;28;20503;-67
2022/01/04 08:38:14;;;;;;;2.70;1.20;;;11.00;99.90;;;;;;4973099;28;20259;-67
2022/01/04 08:40:40;;;;;;;1.47;1.33;;;11.10;99.90;;;;;;4969811;28;20218;-68
2022/01/04 08:43:06;;;;;;;1.37;1.27;;;11.10;99.90;;;;;;4973067;28;20787;-71
2022/01/04 08:45:33;;;;;;;2.67;1.13;;;11.30;99.90;;;;;;4972748;28;20188;-70
2022/01/04 08:47:59;;;;;;;3.47;1.47;;;11.40;99.90;;;;;;4973122;28;20185;-71
2022/01/04 08:50:25;;;;;;;1.90;1.80;;;11.50;99.90;;;;;;4969533;28;20463;-70
2022/01/04 08:52:52;;;;;;;1.60;1.50;;;11.50;99.90;;;;;;4971988;28;20547;-70
2022/01/04 08:55:18;;;;;;;2.53;1.43;;;11.50;99.90;;;;;;4972781;28;20977;-67
2022/01/04 08:57:44;;;;;;;5.23;3.80;;;11.40;99.90;;;;;;4972960;28;20507;-67
2022/01/04 09:00:10;;;;;;;1.73;1.50;;;11.40;99.90;;;;;;4972934;28;20546;-67
2022/01/04 09:02:36;;;;;;;2.73;1.50;;;11.30;99.90;;;;;;4969608;28;20215;-67
2022/01/04 09:05:02;;;;;;;1.27;1.27;;;11.30;99.90;;;;;;4972718;28;20420;-67
2022/01/04 09:07:28;;;;;;;1.87;1.20;;;11.40;99.90;;;;;;4972921;28;20465;-67
2022/01/04 09:09:54;;;;;;;1.70;1.40;;;11.40;99.90;;;;;;4972769;28;20452;-67
2022/01/04 09:12:23;;;;;;;1.50;1.20;;;11.40;99.90;;;;;;4969224;28;20538;-67
2022/01/04 09:15:05;;;;;;;3.40;1.70;;;11.40;99.90;;;;;;4972780;28;20164;-67
2022/01/04 09:20:15;;;;;;;1.40;1.30;;;11.40;99.90;;;;;;4967276;28;20511;-68
2022/01/04 09:22:42;;;;;;;1.47;1.30;;;11.30;99.90;;;;;;4966504;28;20475;-68
2022/01/04 09:25:09;;;;;;;1.37;1.27;;;11.30;99.90;;;;;;4969128;28;20954;-67
2022/01/04 09:27:36;;;;;;;1.63;1.27;;;11.30;99.90;;;;;;4970681;28;20501;-67
2022/01/04 09:30:04;;;;;;;4.00;1.10;;;11.30;99.90;;;;;;4969518;28;20526;-67
2022/01/04 09:32:31;;;;;;;4.13;1.83;;;11.30;99.90;;;;;;4966254;28;20514;-67
2022/01/04 09:34:58;;;;;;;1.77;1.67;;;11.20;99.90;;;;;;4969490;28;20482;-67
2022/01/04 09:37:24;;;;;;;1.30;1.20;;;11.20;99.90;;;;;;4971024;28;20419;-67
2022/01/04 09:39:51;;;;;;;1.60;1.50;;;11.20;99.90;;;;;;4972784;28;20455;-67
2022/01/04 09:42:17;;;;;;;3.33;1.40;;;11.20;99.90;;;;;;4969095;28;20475;-67
2022/01/04 09:44:43;;;;;;;1.87;1.40;;;11.10;99.90;;;;;;4972855;28;20431;-67
2022/01/04 09:47:08;;;;;;;1.67;1.33;;;11.10;99.90;;;;;;4972578;28;20435;-67
2022/01/04 09:49:34;;;;;;;1.60;1.50;;;11.10;99.90;;;;;;4972868;28;20537;-67
2022/01/04 09:52:02;;;;;;;2.13;1.70;;;11.10;99.90;;;;;;4969064;28;20629;-67
2022/01/04 09:54:28;;;;;;;1.87;1.50;;;11.20;99.90;;;;;;4969756;28;20184;-67
2022/01/04 09:56:54;;;;;;;2.53;2.33;;;11.10;99.90;;;;;;4972445;28;20981;-67
2022/01/04 09:59:20;;;;;;;1.50;1.40;;;11.10;99.90;;;;;;4972586;28;20180;-67
2022/01/04 10:01:53;;;;;;;1.60;1.50;;;11.20;99.90;;;;;;4969930;28;20204;-67
2022/01/04 10:04:23;;;;;;;2.53;1.80;;;11.20;99.90;;;;;;4972728;28;20921;-67
2022/01/04 10:07:02;;;;;;;2.03;1.83;;;11.20;99.90;;;;;;4972289;28;20431;-67
2022/01/04 10:09:36;;;;;;;1.50;1.40;;;11.20;99.90;;;;;;4972446;28;20436;-67
2022/01/04 10:12:02;;;;;;;2.07;1.67;;;11.20;99.90;;;;;;4969407;28;20477;-67
2022/01/04 10:14:35;;;;;;;1.80;1.60;;;11.20;99.90;;;;;;4972427;28;20420;-67
2022/01/04 10:17:04;;;;;;;2.10;1.73;;;11.20;99.90;;;;;;4972191;28;20419;-67
2022/01/04 10:19:36;;;;;;;1.53;1.43;;;11.20;99.90;;;;;;4972183;28;20482;-67
2022/01/04 10:22:30;;;;;;;1.93;1.83;;;11.20;99.90;;;;;;4969864;28;20475;-67
2022/01/04 10:25:02;;;;;;;2.37;1.63;;;11.20;99.90;;;;;;4972088;28;20416;-68
2022/01/04 10:27:28;;;;;;;4.40;3.67;;;11.30;99.90;;;;;;4972181;28;20530;-68
2022/01/04 10:30:22;;;;;;;3.13;1.53;;;11.30;99.90;;;;;;4971946;28;20637;-67
2022/01/04 10:32:54;;;;;;;2.63;1.70;;;11.40;99.90;;;;;;4970729;28;20226;-67
2022/01/04 10:35:30;;;;;;;3.30;3.00;;;11.40;99.90;;;;;;4971836;28;20824;-67
2022/01/04 10:37:58;;;;;;;4.33;1.53;;;11.40;99.90;;;;;;4971659;28;20449;-69
2022/01/04 10:40:25;;;;;;;2.13;1.77;;;11.50;99.90;;;;;;4970286;28;20455;-68
2022/01/04 10:42:51;;;;;;;2.53;1.50;;;11.50;99.90;;;;;;4970958;28;20431;-68
2022/01/04 10:45:26;;;;;;;7.90;2.13;;;11.50;99.90;;;;;;4971597;28;20436;-68
2022/01/04 10:47:52;;;;;;;1.53;1.43;;;11.50;99.90;;;;;;4971346;28;20506;-67
2022/01/04 10:50:34;;;;;;;3.37;1.87;;;11.50;99.90;;;;;;4970314;28;20558;-67
2022/01/04 10:53:01;;;;;;;2.53;2.10;;;11.50;99.90;;;;;;4968660;28;20176;-67
2022/01/04 10:55:35;;;;;;;1.90;1.70;;;11.40;99.90;;;;;;4971461;28;20427;-68
2022/01/04 10:58:02;;;;;;;3.60;2.50;;;11.40;99.90;;;;;;4971590;28;20470;-68
2022/01/04 11:00:29;;;;;;;3.50;3.30;;;11.40;99.90;;;;;;4969758;28;20435;-68
2022/01/04 11:02:57;;;;;;;2.70;2.00;;;11.40;99.90;;;;;;4970980;28;20432;-67
2022/01/04 11:05:24;;;;;;;2.30;1.80;;;11.30;99.90;;;;;;4974003;28;20435;-67
2022/01/04 11:08:05;;;;;;;4.70;1.90;;;11.30;99.90;;;;;;4973266;28;20449;-67
2022/01/04 11:10:34;;;;;;;2.63;2.10;;;11.30;99.90;;;;;;4972105;28;20546;-67
2022/01/04 11:13:00;;;;;;;2.67;1.97;;;11.30;99.90;;;;;;4973942;28;20764;-67
2022/01/04 11:15:27;;;;;;;6.73;2.30;;;11.30;99.90;;;;;;4974082;28;20474;-67
2022/01/04 11:17:53;;;;;;;3.20;2.30;;;11.40;99.90;;;;;;4974269;28;20510;-67
2022/01/04 11:20:19;;;;;;;2.63;2.43;;;11.50;99.90;;;;;;4972854;28;20420;-67
2022/01/04 11:22:47;;;;;;;2.30;2.00;;;11.50;99.90;;;;;;4972700;28;20439;-69
2022/01/04 11:25:16;;;;;;;4.00;2.37;;;11.60;99.90;;;;;;4973933;28;20504;-66
2022/01/04 11:27:42;;;;;;;2.60;1.63;;;11.50;99.90;;;;;;4972832;28;20458;-66
2022/01/04 11:30:38;;;;;;;2.30;1.57;;;11.50;99.90;;;;;;4972435;28;20479;-66
2022/01/04 11:33:09;;;;;;;4.50;2.57;;;11.40;99.90;;;;;;4971670;28;20444;-67
2022/01/04 11:35:35;;;;;;;2.70;1.87;;;11.40;99.90;;;;;;4973760;28;20427;-67
2022/01/04 11:38:00;;;;;;;1.80;1.70;;;11.40;99.90;;;;;;4972385;28;20940;-67
2022/01/04 11:40:35;;;;;;;2.17;1.93;;;11.40;99.90;;;;;;4971977;28;20664;-67
2022/01/04 11:43:01;;;;;;;2.07;1.87;;;11.40;99.90;;;;;;4969308;28;20553;-67
2022/01/04 11:45:44;;;;;;;2.10;1.47;;;11.30;99.90;;;;;;4973627;28;20431;-68
2022/01/04 11:48:34;;;;;;;2.20;2.00;;;11.30;99.90;;;;;;4973919;28;20428;-68
2022/01/04 11:51:09;;;;;;;2.50;2.30;;;11.30;99.90;;;;;;4971277;28;20467;-67
2022/01/04 11:53:36;;;;;;;2.30;2.10;;;11.30;99.90;;;;;;4973512;28;20480;-67
2022/01/04 11:56:06;;;;;;;4.03;2.50;;;11.20;99.90;;;;;;4973469;28;20435;-67
2022/01/04 11:58:52;;;;;;;3.17;2.40;;;11.20;99.90;;;;;;4973642;28;20458;-67
2022/01/04 12:01:27;;;;;;;2.60;2.33;;;11.20;99.90;;;;;;4970574;28;20478;-67
2022/01/04 12:03:53;;;;;;;2.73;2.53;;;11.20;99.90;;;;;;4973670;28;20435;-67
2022/01/04 12:06:20;;;;;;;3.97;2.50;;;11.20;99.90;;;;;;4973211;28;20442;-68
2022/01/04 12:08:51;;;;;;;5.40;2.60;;;11.10;99.90;;;;;;4972522;28;20543;-67
2022/01/04 12:11:25;;;;;;;9.37;2.57;;;11.10;99.90;;;;;;4970838;28;20475;-67
2022/01/04 12:13:54;;;;;;;3.33;2.90;;;11.10;99.90;;;;;;4973320;28;20411;-67
2022/01/04 12:16:33;;;;;;;3.47;3.17;;;11.10;99.90;;;;;;4973137;28;20424;-67
2022/01/04 12:19:00;;;;;;;3.43;3.13;;;11.10;99.90;;;;;;4973396;28;20511;-67
2022/01/04 12:21:29;;;;;;;4.10;2.60;;;11.10;99.90;;;;;;4970382;28;20555;-68
2022/01/04 12:23:56;;;;;;;2.70;2.50;;;11.10;99.90;;;;;;4973368;28;20420;-67
2022/01/04 12:26:32;;;;;;;5.87;3.70;;;11.10;99.90;;;;;;4972911;28;20430;-68
2022/01/04 12:28:58;;;;;;;3.13;2.53;;;11.10;99.90;;;;;;4973290;28;20426;-68
2022/01/04 12:31:27;;;;;;;2.63;2.43;;;11.10;99.90;;;;;;4970305;28;20470;-68
2022/01/04 12:34:01;;;;;;;2.30;2.10;;;11.00;99.90;;;;;;4973222;28;20785;-67
2022/01/04 12:36:36;;;;;;;2.80;2.60;;;11.00;99.90;;;;;;4972708;28;20433;-68
2022/01/04 12:39:09;;;;;;;3.17;2.40;;;11.00;99.90;;;;;;4977484;28;20779;-68
2022/01/04 12:41:36;;;;;;;2.60;2.23;;;11.10;99.90;;;;;;4978661;28;20448;-67
2022/01/04 12:44:02;;;;;;;2.33;1.80;;;11.10;99.90;;;;;;4973158;28;20499;-67
2022/01/04 12:46:37;;;;;;;4.73;2.70;;;11.10;99.90;;;;;;4972850;28;20478;-67
2022/01/04 12:49:05;;;;;;;2.07;1.87;;;11.10;99.90;;;;;;4969280;28;20513;-67
2022/01/04 12:51:38;;;;;;;4.00;2.63;;;11.00;99.90;;;;;;4965850;28;20559;-68
2022/01/04 12:54:06;;;;;;;2.27;1.93;;;11.00;99.90;;;;;;4962081;28;20446;-68
2022/01/04 12:56:33;;;;;;;3.73;2.50;;;11.00;99.90;;;;;;4964225;28;20431;-68
2022/01/04 12:58:59;;;;;;;2.60;1.97;;;11.00;99.90;;;;;;4969882;28;20431;-67
2022/01/04 13:01:27;;;;;;;2.20;2.00;;;11.00;99.90;;;;;;4970063;28;20459;-67
2022/01/04 13:03:54;;;;;;;3.17;2.10;;;11.00;99.90;;;;;;4962451;28;20493;-67